createdAt,value
2022-07-26T00:00:54.521Z,38.53
2022-07-26T00:01:57.431Z,37.70
2022-07-26T00:03:00.322Z,38.23
2022-07-26T00:04:03.326Z,37.18
2022-07-26T00:05:07.120Z,37.74
2022-07-26T00:06:10.381Z,37.62
2022-07-26T00:07:13.270Z,38.37
2022-07-26T00:08:16.143Z,37.68
2022-07-26T00:09:18.937Z,38.42
2022-07-26T00:10:21.692Z,38.70
2022-07-26T00:11:25.826Z,38.84
2022-07-26T00:12:28.652Z,39.10
2022-07-26T00:13:31.591Z,39.68
2022-07-26T00:14:34.328Z,38.76
2022-07-26T00:15:38.470Z,39.32
2022-07-26T00:16:41.642Z,39.91
2022-07-26T00:17:44.527Z,39.78
2022-07-26T00:18:48.049Z,40.61
2022-07-26T00:19:50.931Z,40.37
2022-07-26T00:20:53.851Z,40.64
2022-07-26T00:22:17.018Z,40.42
2022-07-26T00:23:19.898Z,40.57
2022-07-26T00:24:22.727Z,40.73
2022-07-26T00:25:25.505Z,39.89
2022-07-26T00:26:31.909Z,40.71
2022-07-26T00:27:37.528Z,40.71
2022-07-26T00:28:41.548Z,38.97
2022-07-26T00:29:44.358Z,37.69
2022-07-26T00:30:47.773Z,40.12
2022-07-26T00:31:50.620Z,38.07
2022-07-26T00:32:53.519Z,37.93
2022-07-26T00:33:56.374Z,37.52
2022-07-26T00:34:59.172Z,37.30
2022-07-26T00:36:08.038Z,36.51
2022-07-26T00:37:10.832Z,36.59
2022-07-26T00:38:13.734Z,36.23
2022-07-26T00:39:16.491Z,36.52
2022-07-26T00:40:19.320Z,35.96
2022-07-26T00:41:22.090Z,35.75
2022-07-26T00:42:24.896Z,35.17
2022-07-26T00:43:27.629Z,35.11
2022-07-26T00:44:45.948Z,35.18
2022-07-26T00:45:50.322Z,35.79
2022-07-26T00:46:53.358Z,34.90
2022-07-26T00:47:56.344Z,35.04
2022-07-26T00:48:59.251Z,36.11
2022-07-26T00:50:02.613Z,36.22
2022-07-26T00:51:05.389Z,35.49
2022-07-26T00:52:10.477Z,36.50
2022-07-26T00:53:13.229Z,36.17
2022-07-26T00:54:17.851Z,37.23
2022-07-26T00:55:21.156Z,34.37
2022-07-26T00:56:24.055Z,32.77
2022-07-26T00:57:26.981Z,33.65
2022-07-26T00:58:29.744Z,34.71
2022-07-26T00:59:32.952Z,33.59
2022-07-26T01:00:35.761Z,34.37
2022-07-26T01:01:38.716Z,32.58
2022-07-26T01:02:42.321Z,32.85
2022-07-26T01:03:45.458Z,32.66
2022-07-26T01:04:48.554Z,32.83
2022-07-26T01:05:51.487Z,32.68
2022-07-26T01:06:56.064Z,33.22
2022-07-26T01:07:59.169Z,33.55
2022-07-26T01:09:03.530Z,33.64
2022-07-26T01:10:12.270Z,34.28
2022-07-26T01:11:15.020Z,34.28
2022-07-26T01:12:18.476Z,34.98
2022-07-26T01:13:22.306Z,34.75
2022-07-26T01:14:26.068Z,35.50
2022-07-26T01:15:28.863Z,34.74
2022-07-26T01:16:31.981Z,34.51
2022-07-26T01:17:38.128Z,34.59
2022-07-26T01:18:41.468Z,34.84
2022-07-26T01:19:44.341Z,35.06
2022-07-26T01:20:48.787Z,35.18
2022-07-26T01:21:52.072Z,35.11
2022-07-26T01:22:54.801Z,35.17
2022-07-26T01:23:57.798Z,36.25
2022-07-26T01:25:00.596Z,35.77
2022-07-26T01:26:04.060Z,35.27
2022-07-26T01:27:07.215Z,34.92
2022-07-26T01:28:09.946Z,35.17
2022-07-26T01:29:12.627Z,34.90
2022-07-26T01:30:15.525Z,34.67
2022-07-26T01:31:18.510Z,34.66
2022-07-26T01:32:22.045Z,35.32
2022-07-26T01:33:28.256Z,35.64
2022-07-26T01:34:31.232Z,35.42
2022-07-26T01:35:34.056Z,35.09
2022-07-26T01:36:36.782Z,35.20
2022-07-26T01:37:42.497Z,35.17
2022-07-26T01:38:45.405Z,35.35
2022-07-26T01:39:48.151Z,35.45
2022-07-26T01:40:50.833Z,35.53
2022-07-26T01:41:54.419Z,35.45
2022-07-26T01:43:00.973Z,35.56
2022-07-26T01:44:09.050Z,35.32
2022-07-26T01:45:12.981Z,35.39
2022-07-26T01:46:15.758Z,35.19
2022-07-26T01:47:18.859Z,35.33
2022-07-26T01:48:21.640Z,35.34
2022-07-26T01:49:24.428Z,35.28
2022-07-26T01:50:27.348Z,35.67
2022-07-26T01:51:30.185Z,35.56
2022-07-26T01:52:33.493Z,35.51
2022-07-26T01:53:37.167Z,35.52
2022-07-26T01:54:40.044Z,35.31
2022-07-26T01:55:42.955Z,35.38
2022-07-26T01:56:45.780Z,35.44
2022-07-26T01:57:48.516Z,36.36
2022-07-26T01:58:51.280Z,35.13
2022-07-26T01:59:55.757Z,35.25
2022-07-26T02:00:58.548Z,35.32
2022-07-26T02:02:01.497Z,36.10
2022-07-26T02:03:04.525Z,35.39
2022-07-26T02:04:29.981Z,36.05
2022-07-26T02:05:32.657Z,36.73
2022-07-26T02:06:35.560Z,35.81
2022-07-26T02:07:44.568Z,36.34
2022-07-26T02:08:47.654Z,36.41
2022-07-26T02:09:50.567Z,38.03
2022-07-26T02:11:03.675Z,37.68
2022-07-26T02:12:06.940Z,38.86
2022-07-26T02:13:09.676Z,39.17
2022-07-26T02:14:12.395Z,39.40
2022-07-26T02:15:29.500Z,39.23
2022-07-26T02:16:32.265Z,39.24
2022-07-26T02:17:35.161Z,39.50
2022-07-26T02:18:38.644Z,39.52
2022-07-26T02:19:41.448Z,40.44
2022-07-26T02:20:45.329Z,40.33
2022-07-26T02:21:48.140Z,40.63
2022-07-26T02:22:50.792Z,40.51
2022-07-26T02:23:53.550Z,40.85
2022-07-26T02:24:59.491Z,41.17
2022-07-26T02:26:04.591Z,41.38
2022-07-26T02:27:07.368Z,41.31
2022-07-26T02:28:12.262Z,40.93
2022-07-26T02:30:22.355Z,40.88
2022-07-26T02:31:25.048Z,40.72
2022-07-26T02:32:35.356Z,41.06
2022-07-26T02:33:38.060Z,40.59
2022-07-26T02:34:40.858Z,41.01
2022-07-26T02:35:44.207Z,41.92
2022-07-26T02:36:46.994Z,42.14
2022-07-26T02:37:52.953Z,42.68
2022-07-26T02:38:56.026Z,42.82
2022-07-26T02:39:58.727Z,42.73
2022-07-26T02:41:01.529Z,41.99
2022-07-26T02:42:04.327Z,41.90
2022-07-26T02:43:08.587Z,42.41
2022-07-26T02:44:11.568Z,41.71
2022-07-26T02:45:14.570Z,43.03
2022-07-26T02:46:17.549Z,43.56
2022-07-26T02:47:20.915Z,43.49
2022-07-26T02:48:23.589Z,43.53
2022-07-26T02:49:26.517Z,43.69
2022-07-26T02:50:29.885Z,43.64
2022-07-26T02:51:32.753Z,44.47
2022-07-26T02:52:35.448Z,43.85
2022-07-26T02:53:38.093Z,43.52
2022-07-26T02:54:40.800Z,44.31
2022-07-26T02:55:43.638Z,44.37
2022-07-26T02:56:46.437Z,44.48
2022-07-26T02:57:49.556Z,44.48
2022-07-26T02:58:54.128Z,44.44
2022-07-26T02:59:57.204Z,44.15
2022-07-26T03:00:59.871Z,43.47
2022-07-26T03:02:02.770Z,43.48
2022-07-26T03:03:05.569Z,43.20
2022-07-26T03:04:08.845Z,43.54
2022-07-26T03:05:11.907Z,43.16
2022-07-26T03:06:14.900Z,43.83
2022-07-26T03:07:17.935Z,43.87
2022-07-26T03:08:21.075Z,43.78
2022-07-26T03:09:24.136Z,42.89
2022-07-26T03:10:27.064Z,42.51
2022-07-26T03:11:29.899Z,43.03
2022-07-26T03:12:32.646Z,43.22
2022-07-26T03:13:35.400Z,43.33
2022-07-26T03:14:38.199Z,43.75
2022-07-26T03:15:41.264Z,43.57
2022-07-26T03:16:44.033Z,43.88
2022-07-26T03:17:46.731Z,43.68
2022-07-26T03:18:49.456Z,44.15
2022-07-26T03:19:52.273Z,43.95
2022-07-26T03:20:55.538Z,44.44
2022-07-26T03:21:59.413Z,44.15
2022-07-26T03:23:03.238Z,43.93
2022-07-26T03:24:06.573Z,44.02
2022-07-26T03:25:09.693Z,43.80
2022-07-26T03:26:12.668Z,43.76
2022-07-26T03:27:15.385Z,44.17
2022-07-26T03:28:19.653Z,44.78
2022-07-26T03:29:22.556Z,44.16
2022-07-26T03:30:26.535Z,43.88
2022-07-26T03:31:29.589Z,44.04
2022-07-26T03:32:32.415Z,44.06
2022-07-26T03:33:35.041Z,43.67
2022-07-26T03:34:37.933Z,43.57
2022-07-26T03:35:44.001Z,42.91
2022-07-26T03:36:47.576Z,42.35
2022-07-26T03:37:50.425Z,44.50
2022-07-26T03:38:53.394Z,43.89
2022-07-26T03:39:56.236Z,43.96
2022-07-26T03:40:59.190Z,44.44
2022-07-26T03:42:02.000Z,44.50
2022-07-26T03:43:04.667Z,44.76
2022-07-26T03:44:07.683Z,42.64
2022-07-26T03:45:10.958Z,43.23
2022-07-26T03:46:17.096Z,43.27
2022-07-26T03:47:20.038Z,43.20
2022-07-26T03:48:22.791Z,41.88
2022-07-26T03:49:26.600Z,42.84
2022-07-26T03:50:29.502Z,41.70
2022-07-26T03:51:34.227Z,43.15
2022-07-26T03:52:37.075Z,42.62
2022-07-26T03:53:39.743Z,41.55
2022-07-26T03:54:42.506Z,41.49
2022-07-26T03:56:07.653Z,41.91
2022-07-26T03:57:10.597Z,41.88
2022-07-26T03:58:20.430Z,41.44
2022-07-26T03:59:25.709Z,41.96
2022-07-26T04:00:28.599Z,41.22
2022-07-26T04:01:32.071Z,41.28
2022-07-26T04:02:34.878Z,41.91
2022-07-26T04:03:37.784Z,40.42
2022-07-26T04:04:40.914Z,40.75
2022-07-26T04:05:48.975Z,42.79
2022-07-26T04:06:52.102Z,40.19
2022-07-26T04:07:55.896Z,40.71
2022-07-26T04:08:58.805Z,43.59
2022-07-26T04:10:01.555Z,42.09
2022-07-26T04:11:04.428Z,42.77
2022-07-26T04:12:07.329Z,41.07
2022-07-26T04:13:10.123Z,42.70
2022-07-26T04:14:12.885Z,43.26
2022-07-26T04:15:17.285Z,42.41
2022-07-26T04:16:20.278Z,45.11
2022-07-26T04:17:26.249Z,45.10
2022-07-26T04:18:29.155Z,45.31
2022-07-26T04:19:31.837Z,47.58
2022-07-26T04:20:34.820Z,46.61
2022-07-26T04:21:37.570Z,46.30
2022-07-26T04:22:45.527Z,45.77
2022-07-26T04:23:51.368Z,42.57
2022-07-26T04:24:54.531Z,39.29
2022-07-26T04:25:57.350Z,38.33
2022-07-26T04:27:00.125Z,38.81
2022-07-26T04:28:03.419Z,39.51
2022-07-26T04:29:06.183Z,39.80
2022-07-26T04:30:15.089Z,40.53
2022-07-26T04:31:18.622Z,39.85
2022-07-26T04:32:21.474Z,40.28
2022-07-26T04:33:24.622Z,41.18
2022-07-26T04:34:27.435Z,42.36
2022-07-26T04:35:30.139Z,41.34
2022-07-26T04:36:33.170Z,41.50
2022-07-26T04:37:42.984Z,42.65
2022-07-26T04:38:45.758Z,41.87
2022-07-26T04:39:52.948Z,41.13
2022-07-26T04:40:58.214Z,40.01
2022-07-26T04:42:00.994Z,39.44
2022-07-26T04:43:07.205Z,39.56
2022-07-26T04:44:12.686Z,39.40
2022-07-26T04:45:15.589Z,39.25
2022-07-26T04:46:19.527Z,38.89
2022-07-26T04:47:22.329Z,39.23
2022-07-26T04:48:26.036Z,39.86
2022-07-26T04:49:28.699Z,40.20
2022-07-26T04:50:31.360Z,40.86
2022-07-26T04:51:34.161Z,39.87
2022-07-26T04:52:36.844Z,39.51
2022-07-26T04:53:41.174Z,38.65
2022-07-26T04:54:44.005Z,38.44
2022-07-26T04:55:46.886Z,38.51
2022-07-26T04:56:50.274Z,38.82
2022-07-26T04:57:54.207Z,39.15
2022-07-26T04:58:56.936Z,39.35
2022-07-26T05:00:20.269Z,39.46
2022-07-26T05:01:22.628Z,41.03
2022-07-26T05:02:25.473Z,41.88
2022-07-26T05:03:28.415Z,41.89
2022-07-26T05:04:32.190Z,41.33
2022-07-26T05:05:35.055Z,41.74
2022-07-26T05:06:41.219Z,43.38
2022-07-26T05:07:46.124Z,44.09
2022-07-26T05:08:49.389Z,42.19
2022-07-26T05:09:52.202Z,41.02
2022-07-26T05:10:55.825Z,38.48
2022-07-26T05:11:59.260Z,39.82
2022-07-26T05:13:07.749Z,40.08
2022-07-26T05:14:12.192Z,40.14
2022-07-26T05:15:15.758Z,39.18
2022-07-26T05:16:18.777Z,38.71
2022-07-26T05:17:21.668Z,38.96
2022-07-26T05:18:24.766Z,38.83
2022-07-26T05:19:27.380Z,38.31
2022-07-26T05:20:30.318Z,38.04
2022-07-26T05:21:33.052Z,37.92
2022-07-26T05:22:36.917Z,36.81
2022-07-26T05:23:39.777Z,37.02
2022-07-26T05:24:42.590Z,37.84
2022-07-26T05:25:45.310Z,37.44
2022-07-26T05:26:48.088Z,37.59
2022-07-26T05:27:50.913Z,37.33
2022-07-26T05:28:54.492Z,36.78
2022-07-26T05:29:57.258Z,36.92
2022-07-26T05:31:00.061Z,37.30
2022-07-26T05:32:02.909Z,37.82
2022-07-26T05:33:05.652Z,37.70
2022-07-26T05:34:08.627Z,38.74
2022-07-26T05:35:11.527Z,38.85
2022-07-26T05:36:14.306Z,37.80
2022-07-26T05:37:17.510Z,37.80
2022-07-26T05:38:20.941Z,39.09
2022-07-26T05:39:23.799Z,40.77
2022-07-26T05:40:26.686Z,39.48
2022-07-26T05:41:29.477Z,39.35
2022-07-26T05:42:32.244Z,39.70
2022-07-26T05:43:41.506Z,38.52
2022-07-26T05:44:44.966Z,37.46
2022-07-26T05:45:47.941Z,37.60
2022-07-26T05:46:51.153Z,38.10
2022-07-26T05:47:53.916Z,37.54
2022-07-26T05:48:56.759Z,37.72
2022-07-26T05:49:59.601Z,37.92
2022-07-26T05:51:02.424Z,38.29
2022-07-26T05:52:05.578Z,38.60
2022-07-26T05:53:08.344Z,38.76
2022-07-26T05:54:11.764Z,38.85
2022-07-26T05:55:15.103Z,39.59
2022-07-26T05:56:18.417Z,40.19
2022-07-26T05:57:21.561Z,41.50
2022-07-26T05:58:24.843Z,43.05
2022-07-26T05:59:28.004Z,42.94
2022-07-26T06:00:31.321Z,43.98
2022-07-26T06:01:35.305Z,44.68
2022-07-26T06:02:39.651Z,44.60
2022-07-26T06:03:43.001Z,45.05
2022-07-26T06:04:47.380Z,44.73
2022-07-26T06:05:53.994Z,44.86
2022-07-26T06:06:57.250Z,44.99
2022-07-26T06:08:00.450Z,45.01
2022-07-26T06:09:04.158Z,45.64
2022-07-26T06:10:07.805Z,45.79
2022-07-26T06:11:11.548Z,45.83
2022-07-26T06:12:14.757Z,45.76
2022-07-26T06:13:18.255Z,45.69
2022-07-26T06:14:21.392Z,46.18
2022-07-26T06:15:24.530Z,46.50
2022-07-26T06:16:28.586Z,46.11
2022-07-26T06:17:32.047Z,45.92
2022-07-26T06:18:35.857Z,45.84
2022-07-26T06:19:39.850Z,45.36
2022-07-26T06:20:45.802Z,45.16
2022-07-26T06:21:48.878Z,45.13
2022-07-26T06:22:52.764Z,45.85
2022-07-26T06:23:55.840Z,45.84
2022-07-26T06:24:59.052Z,45.45
2022-07-26T06:26:02.697Z,45.76
2022-07-26T06:27:05.865Z,45.73
2022-07-26T06:28:10.804Z,45.24
2022-07-26T06:29:13.974Z,45.04
2022-07-26T06:30:17.185Z,45.43
2022-07-26T06:31:20.436Z,45.95
2022-07-26T06:32:23.744Z,46.14
2022-07-26T06:33:26.818Z,45.89
2022-07-26T06:34:30.272Z,46.11
2022-07-26T06:35:35.847Z,46.12
2022-07-26T06:36:39.023Z,46.01
2022-07-26T06:37:43.621Z,46.44
2022-07-26T06:38:46.684Z,46.74
2022-07-26T06:39:52.838Z,46.48
2022-07-26T06:40:55.954Z,45.84
2022-07-26T06:41:58.963Z,45.69
2022-07-26T06:43:04.555Z,45.92
2022-07-26T06:44:08.417Z,45.29
2022-07-26T06:45:12.164Z,45.38
2022-07-26T06:46:15.452Z,45.29
2022-07-26T06:47:18.536Z,45.79
2022-07-26T06:48:21.656Z,45.88
2022-07-26T06:49:24.894Z,45.75
2022-07-26T06:50:28.089Z,46.11
2022-07-26T06:51:31.052Z,45.52
2022-07-26T06:52:34.646Z,45.49
2022-07-26T06:53:37.862Z,45.51
2022-07-26T06:54:40.986Z,45.10
2022-07-26T06:55:44.171Z,44.89
2022-07-26T06:56:49.325Z,45.39
2022-07-26T06:57:52.400Z,45.74
2022-07-26T06:58:56.627Z,45.23
2022-07-26T06:59:59.704Z,45.51
2022-07-26T07:01:02.937Z,46.16
2022-07-26T07:02:06.378Z,46.11
2022-07-26T07:03:09.530Z,46.31
2022-07-26T07:04:12.760Z,45.49
2022-07-26T07:05:16.143Z,44.96
2022-07-26T07:06:19.345Z,45.50
2022-07-26T07:07:22.386Z,45.02
2022-07-26T07:08:29.649Z,44.75
2022-07-26T07:09:33.953Z,45.02
2022-07-26T07:10:37.382Z,44.51
2022-07-26T07:11:40.838Z,43.65
2022-07-26T07:12:45.493Z,43.16
2022-07-26T07:13:48.819Z,42.58
2022-07-26T07:14:52.048Z,43.01
2022-07-26T07:15:55.200Z,42.77
2022-07-26T07:16:58.732Z,42.94
2022-07-26T07:18:02.267Z,42.41
2022-07-26T07:19:05.500Z,42.23
2022-07-26T07:20:09.054Z,42.15
2022-07-26T07:21:12.149Z,42.46
2022-07-26T07:22:15.458Z,42.15
2022-07-26T07:23:18.554Z,42.02
2022-07-26T07:24:21.903Z,41.61
2022-07-26T07:25:30.402Z,41.57
2022-07-26T07:26:34.518Z,41.35
2022-07-26T07:27:43.525Z,40.68
2022-07-26T07:28:47.043Z,41.06
2022-07-26T07:29:52.027Z,41.33
2022-07-26T07:30:55.122Z,41.27
2022-07-26T07:31:58.243Z,40.89
2022-07-26T07:33:01.415Z,40.84
2022-07-26T07:34:07.073Z,41.31
2022-07-26T07:35:12.850Z,40.96
2022-07-26T07:36:19.464Z,40.61
2022-07-26T07:37:22.783Z,40.70
2022-07-26T07:38:26.041Z,41.30
2022-07-26T07:39:34.968Z,40.98
2022-07-26T07:40:45.596Z,40.87
2022-07-26T07:41:49.113Z,40.58
2022-07-26T07:42:52.381Z,40.43
2022-07-26T07:43:55.648Z,40.42
2022-07-26T07:44:58.818Z,40.36
2022-07-26T07:46:01.959Z,40.59
2022-07-26T07:47:10.609Z,39.81
2022-07-26T07:48:13.888Z,40.04
2022-07-26T07:49:17.238Z,40.40
2022-07-26T07:50:20.590Z,40.22
2022-07-26T07:51:23.935Z,41.04
2022-07-26T07:52:29.971Z,41.11
2022-07-26T07:53:33.149Z,41.16
2022-07-26T07:54:36.503Z,40.69
2022-07-26T07:55:41.171Z,40.79
2022-07-26T07:56:47.377Z,40.67
2022-07-26T07:57:54.529Z,41.30
2022-07-26T07:58:57.522Z,41.99
2022-07-26T08:00:01.285Z,42.51
2022-07-26T08:01:05.240Z,42.49
2022-07-26T08:02:09.628Z,42.56
2022-07-26T08:03:12.769Z,41.94
2022-07-26T08:04:21.347Z,42.09
2022-07-26T08:05:24.830Z,42.47
2022-07-26T08:06:28.197Z,42.33
2022-07-26T08:07:33.059Z,42.02
2022-07-26T08:08:39.622Z,42.71
2022-07-26T08:09:43.295Z,43.27
2022-07-26T08:10:51.768Z,43.70
2022-07-26T08:11:55.729Z,43.70
2022-07-26T08:12:59.563Z,43.20
2022-07-26T08:14:02.918Z,43.09
2022-07-26T08:15:08.390Z,43.49
2022-07-26T08:16:11.853Z,43.24
2022-07-26T08:17:15.090Z,43.71
2022-07-26T08:18:19.516Z,44.20
2022-07-26T08:19:26.517Z,44.58
2022-07-26T08:20:44.067Z,44.15
2022-07-26T08:21:47.438Z,44.76
2022-07-26T08:22:50.772Z,44.12
2022-07-26T08:23:54.009Z,44.25
2022-07-26T08:24:57.122Z,44.96
2022-07-26T08:26:04.768Z,44.70
2022-07-26T08:27:10.051Z,45.29
2022-07-26T08:28:30.589Z,46.06
2022-07-26T08:29:36.365Z,44.97
2022-07-26T08:30:39.661Z,44.98
2022-07-26T08:31:42.791Z,45.33
2022-07-26T08:32:45.841Z,45.46
2022-07-26T08:33:49.546Z,45.14
2022-07-26T08:34:52.532Z,44.44
2022-07-26T08:35:58.531Z,44.11
2022-07-26T08:37:16.483Z,43.62
2022-07-26T08:38:20.754Z,43.23
2022-07-26T08:39:23.778Z,41.93
2022-07-26T08:40:26.829Z,41.61
2022-07-26T08:41:31.448Z,41.95
2022-07-26T08:42:34.563Z,41.81
2022-07-26T08:43:48.887Z,41.30
2022-07-26T08:44:55.799Z,41.57
2022-07-26T08:46:04.910Z,41.37
2022-07-26T08:47:11.591Z,41.70
2022-07-26T08:48:17.641Z,41.96
2022-07-26T08:49:21.406Z,41.35
2022-07-26T08:50:26.373Z,41.42
2022-07-26T08:51:31.214Z,41.04
2022-07-26T08:52:35.038Z,40.76
2022-07-26T08:53:39.379Z,40.20
2022-07-26T08:54:48.917Z,40.05
2022-07-26T08:56:06.956Z,39.94
2022-07-26T08:57:10.730Z,39.30
2022-07-26T08:58:14.022Z,38.74
2022-07-26T08:59:21.971Z,39.06
2022-07-26T09:00:32.377Z,39.17
2022-07-26T09:01:35.734Z,38.96
2022-07-26T09:02:42.092Z,39.08
2022-07-26T09:03:46.203Z,39.13
2022-07-26T09:04:49.447Z,39.04
2022-07-26T09:05:54.300Z,38.45
2022-07-26T09:06:59.726Z,37.67
2022-07-26T09:08:27.098Z,37.81
2022-07-26T09:09:30.784Z,37.87
2022-07-26T09:10:39.161Z,37.53
2022-07-26T09:11:42.878Z,37.53
2022-07-26T09:12:49.433Z,38.19
2022-07-26T09:14:04.011Z,38.75
2022-07-26T09:15:17.892Z,39.63
2022-07-26T09:16:21.388Z,39.88
2022-07-26T09:17:29.399Z,40.40
2022-07-26T09:18:32.476Z,40.47
2022-07-26T09:19:35.734Z,40.46
2022-07-26T09:20:47.583Z,41.31
2022-07-26T09:21:52.427Z,41.14
2022-07-26T09:22:58.498Z,41.23
2022-07-26T09:24:04.658Z,41.50
2022-07-26T09:25:21.864Z,41.34
2022-07-26T09:26:25.076Z,41.86
2022-07-26T09:27:37.170Z,42.78
2022-07-26T09:28:45.023Z,43.66
2022-07-26T09:29:54.534Z,43.60
2022-07-26T09:31:03.540Z,44.40
2022-07-26T09:32:20.076Z,44.66
2022-07-26T09:33:23.284Z,44.71
2022-07-26T09:34:27.229Z,45.53
2022-07-26T09:35:51.378Z,46.54
2022-07-26T09:36:58.561Z,48.08
2022-07-26T09:38:12.546Z,50.59
2022-07-26T09:39:15.990Z,52.21
2022-07-26T09:40:23.046Z,52.63
2022-07-26T09:41:31.649Z,54.12
2022-07-26T09:42:36.363Z,54.49
2022-07-26T09:43:42.611Z,55.64
2022-07-26T09:44:48.117Z,59.43
2022-07-26T09:46:05.461Z,61.32
2022-07-26T09:47:08.962Z,60.86
2022-07-26T09:48:12.598Z,61.65
2022-07-26T09:49:21.107Z,62.87
2022-07-26T09:50:28.231Z,63.39
2022-07-26T09:51:46.453Z,64.42
2022-07-26T09:53:13.599Z,63.16
2022-07-26T09:54:36.289Z,64.72
2022-07-26T09:55:45.487Z,66.96
2022-07-26T09:56:51.046Z,67.22
2022-07-26T09:57:54.860Z,67.47
2022-07-26T09:58:58.001Z,67.68
2022-07-26T10:00:06.441Z,67.89
2022-07-26T10:01:11.553Z,69.13
2022-07-26T10:02:14.945Z,69.94
2022-07-26T10:03:18.007Z,69.62
2022-07-26T10:04:21.814Z,74.35
2022-07-26T10:05:26.191Z,72.83
2022-07-26T10:06:30.597Z,74.36
2022-07-26T10:07:33.988Z,74.17
2022-07-26T10:08:39.551Z,75.41
2022-07-26T10:09:50.114Z,77.43
2022-07-26T10:10:58.921Z,76.57
2022-07-26T10:12:06.671Z,77.61
2022-07-26T10:13:11.482Z,77.30
2022-07-26T10:14:33.346Z,78.06
2022-07-26T10:15:46.871Z,79.00
2022-07-26T10:16:50.506Z,78.70
2022-07-26T10:17:55.416Z,78.75
2022-07-26T10:18:58.967Z,77.69
2022-07-26T10:20:17.079Z,80.01
2022-07-26T10:21:27.679Z,78.82
2022-07-26T10:22:51.024Z,78.48
2022-07-26T10:23:59.334Z,80.24
2022-07-26T10:25:21.456Z,80.14
2022-07-26T10:26:46.009Z,77.50
2022-07-26T10:27:52.061Z,77.65
2022-07-26T10:28:58.484Z,78.15
2022-07-26T10:30:19.881Z,77.96
2022-07-26T10:31:26.798Z,78.13
2022-07-26T10:32:32.985Z,76.75
2022-07-26T10:33:44.958Z,76.64
2022-07-26T10:34:50.125Z,76.87
2022-07-26T10:35:53.288Z,77.29
2022-07-26T10:37:02.593Z,79.24
2022-07-26T10:38:09.308Z,77.76
2022-07-26T10:39:16.772Z,77.06
2022-07-26T10:40:22.894Z,77.28
2022-07-26T10:41:59.025Z,76.36
2022-07-26T10:44:42.406Z,77.80
2022-07-26T10:45:45.658Z,77.67
2022-07-26T10:47:00.852Z,78.30
2022-07-26T10:48:19.039Z,79.19
2022-07-26T10:49:40.981Z,80.33
2022-07-26T10:50:49.020Z,80.51
2022-07-26T10:52:06.958Z,82.04
2022-07-26T10:53:11.909Z,78.87
2022-07-26T10:54:17.006Z,78.83
2022-07-26T10:55:20.245Z,79.95
2022-07-26T10:56:23.523Z,80.00
2022-07-26T10:57:35.140Z,79.77
2022-07-26T10:58:47.208Z,78.16
2022-07-26T10:59:57.797Z,77.94
2022-07-26T11:01:05.047Z,78.12
2022-07-26T11:02:18.916Z,78.07
2022-07-26T11:03:22.394Z,77.55
2022-07-26T11:04:26.154Z,77.32
2022-07-26T11:05:32.485Z,78.04
2022-07-26T11:06:35.699Z,78.78
2022-07-26T11:07:48.220Z,78.93
2022-07-26T11:08:51.639Z,79.48
2022-07-26T11:10:02.519Z,80.08
2022-07-26T11:11:08.186Z,80.12
2022-07-26T11:12:18.696Z,79.93
2022-07-26T11:13:26.665Z,78.97
2022-07-26T11:14:29.841Z,79.78
2022-07-26T11:15:36.445Z,79.04
2022-07-26T11:16:47.892Z,78.74
2022-07-26T11:17:50.951Z,77.63
2022-07-26T11:18:54.249Z,77.37
2022-07-26T11:19:59.487Z,76.84
2022-07-26T11:21:14.373Z,77.40
2022-07-26T11:22:17.558Z,76.77
2022-07-26T11:23:24.095Z,77.43
2022-07-26T11:24:28.819Z,76.04
2022-07-26T11:25:32.641Z,76.88
2022-07-26T11:26:46.795Z,77.43
2022-07-26T11:28:07.122Z,77.42
2022-07-26T11:29:39.217Z,76.05
2022-07-26T11:31:00.407Z,77.53
2022-07-26T11:32:19.054Z,76.54
2022-07-26T11:33:36.300Z,75.99
2022-07-26T11:34:39.341Z,75.71
2022-07-26T11:35:51.465Z,75.59
2022-07-26T11:36:57.757Z,76.04
2022-07-26T11:38:11.537Z,74.81
2022-07-26T11:39:23.583Z,75.63
2022-07-26T11:40:46.449Z,76.45
2022-07-26T11:41:50.721Z,76.35
2022-07-26T11:42:54.810Z,76.48
2022-07-26T11:44:02.202Z,76.10
2022-07-26T11:45:10.405Z,76.93
2022-07-26T11:46:13.896Z,77.38
2022-07-26T11:47:20.543Z,76.71
2022-07-26T11:48:24.129Z,76.26
2022-07-26T11:51:11.809Z,75.36
2022-07-26T11:52:15.505Z,75.06
2022-07-26T11:53:28.586Z,75.72
2022-07-26T11:54:34.223Z,77.61
2022-07-26T11:55:37.260Z,76.61
2022-07-26T11:56:58.045Z,75.11
2022-07-26T11:58:10.534Z,74.62
2022-07-26T11:59:17.721Z,76.02
2022-07-26T12:00:22.147Z,75.84
2022-07-26T12:01:27.074Z,76.44
2022-07-26T12:02:30.975Z,75.94
2022-07-26T12:03:41.361Z,76.38
2022-07-26T12:04:45.682Z,76.54
2022-07-26T12:06:04.057Z,75.20
2022-07-26T12:07:11.477Z,72.95
2022-07-26T12:08:14.973Z,74.21
2022-07-26T12:09:33.719Z,74.17
2022-07-26T12:10:36.964Z,75.12
2022-07-26T12:11:42.431Z,74.20
2022-07-26T12:12:45.824Z,74.51
2022-07-26T12:14:00.827Z,73.75
2022-07-26T12:15:08.238Z,74.18
2022-07-26T12:16:11.729Z,73.85
2022-07-26T12:17:17.170Z,72.67
2022-07-26T12:18:28.473Z,72.69
2022-07-26T12:19:34.759Z,73.37
2022-07-26T12:20:37.958Z,73.75
2022-07-26T12:21:53.446Z,72.32
2022-07-26T12:23:06.342Z,72.07
2022-07-26T12:24:10.828Z,71.81
2022-07-26T12:25:25.652Z,72.25
2022-07-26T12:26:31.726Z,72.29
2022-07-26T12:27:34.960Z,72.66
2022-07-26T12:28:42.014Z,71.57
2022-07-26T12:29:47.532Z,70.93
2022-07-26T12:30:50.607Z,68.92
2022-07-26T12:32:32.755Z,71.00
2022-07-26T12:33:48.527Z,70.74
2022-07-26T12:35:01.448Z,70.18
2022-07-26T12:36:18.736Z,71.16
2022-07-26T12:37:40.619Z,71.05
2022-07-26T12:38:45.245Z,69.65
2022-07-26T12:40:12.510Z,70.48
2022-07-26T12:42:53.769Z,70.22
2022-07-26T12:44:00.738Z,69.48
2022-07-26T12:45:06.811Z,69.37
2022-07-26T12:46:10.577Z,68.84
2022-07-26T12:47:13.977Z,67.97
2022-07-26T12:48:17.203Z,69.77
2022-07-26T12:49:20.420Z,70.33
2022-07-26T12:50:27.126Z,71.10
2022-07-26T12:51:30.250Z,71.38
2022-07-26T12:52:34.164Z,70.80
2022-07-26T12:53:37.471Z,72.15
2022-07-26T12:54:46.562Z,70.38
2022-07-26T12:55:49.838Z,70.23
2022-07-26T12:56:55.680Z,70.41
2022-07-26T12:57:59.981Z,70.28
2022-07-26T12:59:03.519Z,69.58
2022-07-26T13:00:09.730Z,70.06
2022-07-26T13:01:13.064Z,68.40
2022-07-26T13:02:18.615Z,67.48
2022-07-26T13:03:21.883Z,66.38
2022-07-26T13:04:25.100Z,64.20
2022-07-26T13:05:28.367Z,63.17
2022-07-26T13:06:33.218Z,61.88
2022-07-26T13:07:37.319Z,60.34
2022-07-26T13:08:40.510Z,59.97
2022-07-26T13:09:44.898Z,59.33
2022-07-26T13:10:48.071Z,58.62
2022-07-26T13:11:51.506Z,58.94
2022-07-26T13:12:54.653Z,57.02
2022-07-26T13:13:57.842Z,57.51
2022-07-26T13:15:00.916Z,58.88
2022-07-26T13:16:09.597Z,57.89
2022-07-26T13:17:18.235Z,56.19
2022-07-26T13:18:22.470Z,58.37
2022-07-26T13:19:25.794Z,58.23
2022-07-26T13:20:29.078Z,58.06
2022-07-26T13:21:33.476Z,58.58
2022-07-26T13:22:36.991Z,58.94
2022-07-26T13:23:40.165Z,59.27
2022-07-26T13:24:43.256Z,60.05
2022-07-26T13:25:47.339Z,60.57
2022-07-26T13:26:50.673Z,59.48
2022-07-26T13:27:55.310Z,60.58
2022-07-26T13:28:58.938Z,60.25
2022-07-26T13:30:02.263Z,60.68
2022-07-26T13:31:05.889Z,61.23
2022-07-26T13:32:09.190Z,60.78
2022-07-26T13:33:12.804Z,60.77
2022-07-26T13:34:16.049Z,60.81
2022-07-26T13:35:19.120Z,59.75
2022-07-26T13:36:22.405Z,60.98
2022-07-26T13:37:27.421Z,60.13
2022-07-26T13:38:33.837Z,59.75
2022-07-26T13:39:36.903Z,60.15
2022-07-26T13:40:40.111Z,60.95
2022-07-26T13:41:43.547Z,59.98
2022-07-26T13:42:46.781Z,60.28
2022-07-26T13:43:51.500Z,60.12
2022-07-26T13:44:54.692Z,61.67
2022-07-26T13:45:58.408Z,60.91
2022-07-26T13:47:02.455Z,61.47
2022-07-26T13:48:06.061Z,61.77
2022-07-26T13:49:12.921Z,62.61
2022-07-26T13:50:16.956Z,62.50
2022-07-26T13:51:20.018Z,62.50
2022-07-26T13:52:23.169Z,62.29
2022-07-26T13:53:26.402Z,62.08
2022-07-26T13:54:32.048Z,61.37
2022-07-26T13:55:35.753Z,61.12
2022-07-26T13:56:40.522Z,60.38
2022-07-26T13:57:52.941Z,60.53
2022-07-26T13:59:00.015Z,60.05
2022-07-26T14:00:05.984Z,61.17
2022-07-26T14:01:09.629Z,61.58
2022-07-26T14:02:12.944Z,62.21
2022-07-26T14:03:19.605Z,61.18
2022-07-26T14:04:23.640Z,61.57
2022-07-26T14:05:28.803Z,61.24
2022-07-26T14:06:32.142Z,61.41
2022-07-26T14:07:35.665Z,61.00
2022-07-26T14:08:38.922Z,60.40